Aeroporto :
LOGIN :

Iscrizione | Disclaimer

   EN    FR    IT 

 










Sommario :    VFR   VFR Marginale   IFR   IFR Intensivo   IFR Molto Intensivo
Visibilità : 
Base nubi : 
>= 8 km
>= 3000ft
5 / 8 km
1000 / 3000 ft
1500m / 5 km
500 / 1000 ft
800 / 1500m
200 / 500 ft
< 800m
< 200 ft
Simboli :   Temporali  Nebbia  Neve Forte  Precipitazioni Forti  Vento > 20 kt
SIGMETs :   Varie  Temporali  Ghiacco  Turbolenza  Onda orograficha  Ceneri Vulcaniche







- Altitudine del aeroporto : 197 ft
- Codice IATA : XOG
- Carte del aeroporto


LFMO - Orange

ULTIMO METAR :
  • 222200Z AUTO 34009KT CAVOK 23/15 Q1020 NOSIG

METARs OBSOLETI :
  • 222130Z AUTO 36010KT CAVOK 23/15 Q1020 NOSIG
  • 222100Z AUTO 35011KT CAVOK 24/15 Q1020 NOSIG
  • 222030Z AUTO 01014KT CAVOK 24/15 Q1020 NOSIG
  • 222000Z AUTO 36013KT CAVOK 25/15 Q1020 BECMG 35015G25KT
  • 221930Z AUTO 33009KT 300V360 CAVOK 25/13 Q1020 BECMG 35015G25KT

TAF TAF LFMO
Valido dal 22 a 21 ore il 23 a 21 ore UTC


222000Z 2221/2321 33010KT CAVOK
BECMG 2312/2314 20005KT
Nessun NOTAM noto per questo aeroporto.



MetMap, La meteo Aeronautica in un colpo d'occhio ! - Copyright ORBIFLY Dicembre 2007 - Disclaimer

ORBIFLY MET'MAP TEAM :

Programmazione e sviluppo : Alexandra Zaïnal
Concezione e sviluppo : Baudouin d'Aumeries
Co-Programmazione e sviluppo : Marc-Olivier Méhu
Supporto tecnico e logistico : Manuel Goepfert
Aiuto per la traduzione : Arnaldo La Scala

Contatto : metmap@orbifly.com




FONTI E CREDITI :

   NOAA